createdAt,value
2022-11-28T00:00:17.676Z,11.57
2022-11-28T00:03:07.260Z,7.93
2022-11-28T00:05:56.872Z,8.77
2022-11-28T00:08:44.409Z,12.13
2022-11-28T00:11:31.895Z,14.67
2022-11-28T00:14:19.789Z,10.50
2022-11-28T00:17:07.394Z,11.33
2022-11-28T00:19:56.892Z,12.23
2022-11-28T00:22:44.331Z,10.97
2022-11-28T00:25:33.807Z,10.67
2022-11-28T00:28:23.279Z,11.77
2022-11-28T00:31:14.467Z,11.63
2022-11-28T00:34:02.181Z,9.40
2022-11-28T00:36:49.698Z,10.33
2022-11-28T00:39:37.094Z,9.67
2022-11-28T00:42:26.575Z,13.43
2022-11-28T00:45:16.088Z,10.17
2022-11-28T00:48:03.100Z,12.67
2022-11-28T00:50:50.555Z,10.10
2022-11-28T00:53:42.496Z,8.40
2022-11-28T00:56:38.254Z,9.83
2022-11-28T00:59:25.632Z,12.07
2022-11-28T01:02:13.022Z,13.13
2022-11-28T01:05:00.934Z,9.67
2022-11-28T01:07:48.150Z,11.77
2022-11-28T01:10:38.528Z,11.17
2022-11-28T01:13:25.483Z,11.80
2022-11-28T01:16:15.457Z,10.83
2022-11-28T01:19:02.554Z,10.17
2022-11-28T01:21:49.865Z,9.03
2022-11-28T01:24:36.821Z,7.87
2022-11-28T01:27:23.812Z,13.57
2022-11-28T01:30:10.832Z,12.07
2022-11-28T01:33:00.303Z,9.27
2022-11-28T01:35:58.573Z,10.40
2022-11-28T01:38:46.050Z,14.50
2022-11-28T01:41:33.033Z,10.10
2022-11-28T01:44:19.938Z,9.80
2022-11-28T01:47:07.375Z,12.00
2022-11-28T01:49:56.010Z,10.90
2022-11-28T01:52:45.244Z,12.43
2022-11-28T01:55:38.027Z,9.70
2022-11-28T01:58:25.882Z,10.50
2022-11-28T02:01:13.649Z,10.03
2022-11-28T02:04:01.784Z,8.57
2022-11-28T02:06:48.709Z,8.97
2022-11-28T02:09:35.640Z,10.07
2022-11-28T02:12:38.129Z,9.67
2022-11-28T02:15:51.274Z,9.77
2022-11-28T02:19:12.278Z,12.10
2022-11-28T02:22:08.332Z,10.80
2022-11-28T02:25:12.408Z,10.17
2022-11-28T02:28:21.134Z,11.93
2022-11-28T02:31:43.564Z,9.20
2022-11-28T02:34:33.307Z,12.30
2022-11-28T02:37:39.991Z,10.80
2022-11-28T02:40:29.322Z,12.13
2022-11-28T02:43:43.783Z,10.93
2022-11-28T02:46:41.360Z,12.53
2022-11-28T02:49:41.471Z,10.93
2022-11-28T02:52:30.674Z,10.53
2022-11-28T02:55:18.195Z,12.03
2022-11-28T02:58:05.571Z,11.73
2022-11-28T03:00:53.228Z,13.60
2022-11-28T03:03:49.262Z,11.27
2022-11-28T03:06:42.004Z,9.67
2022-11-28T03:09:46.879Z,13.77
2022-11-28T03:12:41.695Z,13.33
2022-11-28T03:15:33.230Z,10.37
2022-11-28T03:18:25.442Z,13.07
2022-11-28T03:21:16.267Z,9.73
2022-11-28T03:24:06.722Z,13.50
2022-11-28T03:27:13.074Z,12.43
2022-11-28T03:30:04.331Z,11.53
2022-11-28T03:32:54.116Z,12.17
2022-11-28T03:35:45.913Z,11.90
2022-11-28T03:38:39.043Z,10.23
2022-11-28T03:41:30.434Z,13.40
2022-11-28T03:44:22.135Z,12.47
2022-11-28T03:47:09.902Z,11.93
2022-11-28T03:50:00.849Z,13.40
2022-11-28T03:52:54.127Z,10.07
2022-11-28T03:55:44.957Z,12.93
2022-11-28T03:58:37.890Z,11.07
2022-11-28T04:01:45.313Z,10.97
2022-11-28T04:04:52.907Z,13.27
2022-11-28T04:07:59.358Z,10.83
2022-11-28T04:10:58.832Z,11.27
2022-11-28T04:13:46.162Z,12.77
2022-11-28T04:16:53.452Z,11.00
2022-11-28T04:19:45.979Z,14.97
2022-11-28T04:22:38.661Z,11.73
2022-11-28T04:25:26.729Z,14.50
2022-11-28T04:28:16.866Z,10.00
2022-11-28T04:31:06.368Z,12.47
2022-11-28T04:33:56.964Z,10.93
2022-11-28T04:36:45.508Z,12.67
2022-11-28T04:39:34.030Z,14.03
2022-11-28T04:42:27.042Z,13.40
2022-11-28T04:45:14.969Z,14.10
2022-11-28T04:48:02.863Z,10.17
2022-11-28T04:51:09.031Z,12.10
2022-11-28T04:54:02.706Z,11.40
2022-11-28T04:57:08.272Z,12.13
2022-11-28T04:59:56.644Z,12.73
2022-11-28T05:02:44.976Z,10.73
2022-11-28T05:05:32.531Z,11.87
2022-11-28T05:08:20.202Z,14.75
2022-11-28T05:11:07.559Z,10.93
2022-11-28T05:13:55.675Z,11.20
2022-11-28T05:16:43.136Z,13.90
2022-11-28T05:19:31.461Z,12.43
2022-11-28T05:22:21.539Z,12.00
2022-11-28T05:25:08.881Z,10.90
2022-11-28T05:27:56.030Z,13.70
2022-11-28T05:30:44.559Z,14.87
2022-11-28T05:33:32.733Z,13.23
2022-11-28T05:36:21.967Z,14.77
2022-11-28T05:39:09.386Z,13.70
2022-11-28T05:41:56.737Z,13.60
2022-11-28T05:44:45.287Z,14.23
2022-11-28T05:47:33.289Z,13.50
2022-11-28T05:50:20.267Z,12.70
2022-11-28T05:53:10.342Z,14.50
2022-11-28T05:56:00.011Z,15.73
2022-11-28T05:58:47.416Z,16.13
2022-11-28T06:01:34.367Z,14.00
2022-11-28T06:04:21.845Z,18.20
2022-11-28T06:07:08.890Z,17.73
2022-11-28T06:09:58.230Z,17.83
2022-11-28T06:12:45.189Z,14.00
2022-11-28T06:15:37.945Z,16.23
2022-11-28T06:18:25.568Z,13.37
2022-11-28T06:21:13.555Z,16.10
2022-11-28T06:24:00.622Z,18.87
2022-11-28T06:26:48.005Z,15.77
2022-11-28T06:29:35.424Z,15.13
2022-11-28T06:32:22.894Z,13.83
2022-11-28T06:35:10.497Z,14.77
2022-11-28T06:37:57.403Z,18.33
2022-11-28T06:40:44.515Z,17.93
2022-11-28T06:43:32.047Z,19.10
2022-11-28T06:46:20.526Z,17.10
2022-11-28T06:49:07.571Z,16.53
2022-11-28T06:51:55.003Z,14.53
2022-11-28T06:54:42.664Z,17.30
2022-11-28T06:57:30.144Z,16.57
2022-11-28T07:00:17.435Z,15.73
2022-11-28T07:03:04.905Z,14.90
2022-11-28T07:05:52.283Z,19.10
2022-11-28T07:08:40.071Z,14.17
2022-11-28T07:11:29.074Z,18.10
2022-11-28T07:14:16.495Z,16.00
2022-11-28T07:17:03.975Z,17.80
2022-11-28T07:19:54.992Z,16.40
2022-11-28T07:22:43.612Z,17.30
2022-11-28T07:25:31.032Z,19.27
2022-11-28T07:28:21.996Z,20.33
2022-11-28T07:31:12.393Z,18.30
2022-11-28T07:34:02.049Z,19.10
2022-11-28T07:36:49.439Z,17.97
2022-11-28T07:39:36.862Z,15.77
2022-11-28T07:42:24.184Z,17.03
2022-11-28T07:45:11.821Z,20.97
2022-11-28T07:47:59.223Z,23.60
2022-11-28T07:50:46.664Z,20.07
2022-11-28T07:53:34.410Z,17.00
2022-11-28T07:56:24.783Z,18.27
2022-11-28T07:59:12.040Z,16.13
2022-11-28T08:01:59.116Z,15.13
2022-11-28T08:07:55.129Z,17.70
2022-11-28T08:10:42.550Z,15.43
2022-11-28T08:13:30.388Z,18.27
2022-11-28T08:16:22.136Z,14.30
2022-11-28T08:19:09.105Z,15.57
2022-11-28T08:21:56.071Z,14.63
2022-11-28T08:24:43.143Z,15.40
2022-11-28T08:27:30.781Z,13.83
2022-11-28T08:30:18.215Z,15.40
2022-11-28T08:33:05.231Z,15.93
2022-11-28T08:35:52.971Z,19.37
2022-11-28T08:38:44.860Z,14.50
2022-11-28T08:41:41.121Z,15.97
2022-11-28T08:44:30.361Z,12.20
2022-11-28T08:47:18.090Z,13.37
2022-11-28T08:50:05.827Z,15.27
2022-11-28T08:52:53.784Z,16.30
2022-11-28T08:55:44.698Z,17.03
2022-11-28T08:58:32.115Z,12.73
2022-11-28T09:01:21.535Z,13.93
2022-11-28T09:04:10.260Z,12.93
2022-11-28T09:06:57.998Z,15.57
2022-11-28T09:09:45.651Z,13.43
2022-11-28T09:12:33.647Z,14.83
2022-11-28T09:15:21.579Z,12.67
2022-11-28T09:18:10.240Z,13.73
2022-11-28T09:21:01.000Z,13.30
2022-11-28T09:23:48.980Z,15.23
2022-11-28T09:26:36.400Z,13.10
2022-11-28T09:29:23.999Z,14.83
2022-11-28T09:32:11.457Z,14.87
2022-11-28T09:34:58.808Z,17.63
2022-11-28T09:37:47.292Z,13.33
2022-11-28T09:40:35.134Z,14.10
2022-11-28T09:43:33.532Z,15.70
2022-11-28T09:46:25.302Z,14.50
2022-11-28T09:49:22.505Z,15.10
2022-11-28T09:52:21.996Z,15.23
2022-11-28T09:55:19.698Z,16.67
2022-11-28T09:58:33.425Z,14.13
2022-11-28T10:01:23.786Z,15.33
2022-11-28T10:04:14.737Z,14.60
2022-11-28T10:07:05.504Z,16.10
2022-11-28T10:10:10.527Z,14.23
2022-11-28T10:13:17.669Z,14.97
2022-11-28T10:16:16.992Z,14.60
2022-11-28T10:19:20.600Z,16.33
2022-11-28T10:22:23.974Z,13.77
2022-11-28T10:25:28.776Z,12.40
2022-11-28T10:28:28.821Z,15.03
2022-11-28T10:31:40.835Z,11.50
2022-11-28T10:35:07.424Z,14.10
2022-11-28T10:37:54.777Z,13.37
2022-11-28T10:41:02.969Z,13.63
2022-11-28T10:44:03.089Z,12.27
2022-11-28T10:47:16.813Z,13.17
2022-11-28T10:50:12.006Z,13.17
2022-11-28T10:53:40.554Z,12.80
2022-11-28T10:57:15.771Z,14.37
2022-11-28T11:00:14.903Z,13.17
2022-11-28T11:03:03.864Z,12.40
2022-11-28T11:05:51.946Z,12.13
2022-11-28T11:08:40.635Z,13.97
2022-11-28T11:11:36.830Z,11.47
2022-11-28T11:14:34.447Z,12.40
2022-11-28T11:17:35.874Z,14.00
2022-11-28T11:20:24.100Z,15.23
2022-11-28T11:23:22.203Z,13.10
2022-11-28T11:26:27.715Z,12.90
2022-11-28T11:29:41.450Z,13.47
2022-11-28T11:32:30.571Z,11.27
2022-11-28T11:35:20.433Z,12.03
2022-11-28T11:38:17.112Z,11.63
2022-11-28T11:41:26.247Z,16.27
2022-11-28T11:44:20.377Z,11.57
2022-11-28T11:47:10.566Z,15.23
2022-11-28T11:50:03.796Z,14.32
2022-11-28T11:53:10.179Z,14.17
2022-11-28T11:56:00.791Z,14.03
2022-11-28T11:58:52.222Z,12.03
2022-11-28T12:01:40.358Z,13.83
2022-11-28T12:04:45.791Z,16.07
2022-11-28T12:07:38.191Z,17.13
2022-11-28T12:10:30.122Z,12.27
2022-11-28T12:13:23.325Z,14.67
2022-11-28T12:16:13.584Z,14.27
2022-11-28T12:19:10.346Z,12.83
2022-11-28T12:21:57.778Z,12.43
2022-11-28T12:25:11.433Z,15.77
2022-11-28T12:28:04.912Z,13.10
2022-11-28T12:31:11.393Z,14.97
2022-11-28T12:33:58.911Z,12.93
2022-11-28T12:37:11.098Z,13.93
2022-11-28T12:40:27.470Z,14.80
2022-11-28T12:43:21.342Z,13.17
2022-11-28T12:46:08.750Z,16.70
2022-11-28T12:49:16.670Z,11.27
2022-11-28T12:52:16.629Z,13.17
2022-11-28T12:55:08.756Z,14.50
2022-11-28T12:58:07.204Z,12.13
2022-11-28T13:01:00.744Z,14.30
2022-11-28T13:04:00.336Z,14.07
2022-11-28T13:06:59.338Z,13.73
2022-11-28T13:10:02.645Z,14.23
2022-11-28T13:12:59.948Z,13.07
2022-11-28T13:16:28.711Z,10.63
2022-11-28T13:19:25.148Z,13.47
2022-11-28T13:22:25.510Z,13.57
2022-11-28T13:25:20.566Z,12.10
2022-11-28T13:28:29.109Z,15.00
2022-11-28T13:31:35.197Z,17.60
2022-11-28T13:34:22.482Z,13.47
2022-11-28T13:41:22.897Z,12.67
2022-11-28T13:44:31.524Z,14.23
2022-11-28T13:47:21.416Z,13.63
2022-11-28T13:50:24.639Z,16.63
2022-11-28T13:53:22.954Z,14.00
2022-11-28T13:56:42.208Z,14.87
2022-11-28T13:59:30.668Z,16.53
2022-11-28T14:02:33.177Z,18.87
2022-11-28T14:05:32.977Z,18.77
2022-11-28T14:08:32.929Z,17.90
2022-11-28T14:11:41.430Z,14.93
2022-11-28T14:14:47.264Z,15.30
2022-11-28T14:17:46.216Z,16.40
2022-11-28T14:20:57.757Z,18.17
2022-11-28T14:23:56.093Z,14.77
2022-11-28T14:26:44.464Z,14.83
2022-11-28T14:29:39.396Z,17.53
2022-11-28T14:32:43.188Z,19.90
2022-11-28T14:35:49.661Z,15.17
2022-11-28T14:38:36.583Z,15.93
2022-11-28T14:41:24.011Z,25.17
2022-11-28T14:44:45.608Z,19.63
2022-11-28T14:47:42.409Z,20.90
2022-11-28T14:50:29.314Z,21.37
2022-11-28T14:53:37.042Z,20.87
2022-11-28T14:56:26.411Z,19.93
2022-11-28T14:59:13.977Z,19.60
2022-11-28T15:02:04.416Z,18.57
2022-11-28T15:04:52.801Z,18.27
2022-11-28T15:08:03.679Z,17.57
2022-11-28T15:11:08.683Z,19.83
2022-11-28T15:14:17.286Z,18.60
2022-11-28T15:17:06.656Z,17.90
2022-11-28T15:19:54.730Z,16.77
2022-11-28T15:22:43.380Z,17.67
2022-11-28T15:25:39.791Z,18.40
2022-11-28T15:28:28.831Z,19.93
2022-11-28T15:31:21.965Z,20.13
2022-11-28T15:34:10.059Z,18.67
2022-11-28T15:37:14.991Z,21.03
2022-11-28T15:40:06.152Z,21.07
2022-11-28T15:42:53.421Z,18.47
2022-11-28T15:45:42.236Z,17.77
2022-11-28T15:48:39.289Z,21.27
2022-11-28T15:51:30.667Z,24.63
2022-11-28T15:54:32.613Z,23.60
2022-11-28T15:57:25.882Z,25.27
2022-11-28T16:00:16.815Z,23.50
2022-11-28T16:03:05.416Z,21.13
2022-11-28T16:05:53.789Z,20.87
2022-11-28T16:08:46.707Z,24.17
2022-11-28T16:11:35.536Z,21.67
2022-11-28T16:14:30.705Z,25.00
2022-11-28T16:17:23.720Z,22.30
2022-11-28T16:20:27.781Z,20.80
2022-11-28T16:23:26.449Z,20.63
2022-11-28T16:26:22.947Z,20.77
2022-11-28T16:29:10.702Z,24.33
2022-11-28T16:32:08.039Z,20.33
2022-11-28T16:34:57.131Z,21.60
2022-11-28T16:37:44.545Z,25.43
2022-11-28T16:40:32.265Z,22.57
2022-11-28T16:43:25.323Z,22.73
2022-11-28T16:46:19.700Z,25.97
2022-11-28T16:49:09.068Z,24.40
2022-11-28T16:52:16.346Z,21.47
2022-11-28T16:55:23.685Z,25.53
2022-11-28T16:58:15.600Z,23.77
2022-11-28T17:01:03.720Z,23.63
2022-11-28T17:03:52.734Z,24.23
2022-11-28T17:06:39.702Z,23.83
2022-11-28T17:09:26.616Z,24.47
2022-11-28T17:12:28.926Z,22.80
2022-11-28T17:15:20.729Z,26.40
2022-11-28T17:18:10.259Z,25.17
2022-11-28T17:21:00.126Z,25.87
2022-11-28T17:23:47.589Z,26.47
2022-11-28T17:26:35.742Z,24.77
2022-11-28T17:29:25.393Z,26.93
2022-11-28T17:32:13.721Z,27.07
2022-11-28T17:35:03.983Z,25.90
2022-11-28T17:37:51.534Z,26.97
2022-11-28T17:40:42.116Z,22.87
2022-11-28T17:43:33.507Z,25.70
2022-11-28T17:46:27.243Z,22.10
2022-11-28T17:49:14.608Z,23.73
2022-11-28T17:52:03.870Z,21.73
2022-11-28T17:54:53.150Z,24.70
2022-11-28T17:57:40.804Z,25.93
2022-11-28T18:00:29.203Z,22.67
2022-11-28T18:03:17.034Z,23.93
2022-11-28T18:06:05.255Z,23.20
2022-11-28T18:08:52.319Z,23.43
2022-11-28T18:11:40.296Z,26.60
2022-11-28T18:14:30.119Z,25.57
2022-11-28T18:17:21.613Z,26.37
2022-11-28T18:20:09.035Z,23.33
2022-11-28T18:22:56.903Z,23.90
2022-11-28T18:25:45.324Z,23.93
2022-11-28T18:28:34.567Z,27.73
2022-11-28T18:31:26.580Z,26.43
2022-11-28T18:34:13.523Z,24.47
2022-11-28T18:37:00.986Z,27.30
2022-11-28T18:39:48.063Z,24.87
2022-11-28T18:42:36.111Z,25.83
2022-11-28T18:45:23.923Z,26.93
2022-11-28T18:48:13.524Z,25.93
2022-11-28T18:51:00.961Z,25.03
2022-11-28T18:53:48.914Z,28.43
2022-11-28T18:56:36.350Z,25.13
2022-11-28T18:59:23.375Z,24.37
2022-11-28T19:02:13.657Z,26.67
2022-11-28T19:05:00.948Z,25.73
2022-11-28T19:07:48.399Z,28.40
2022-11-28T19:10:39.675Z,24.87
2022-11-28T19:13:29.283Z,28.67
2022-11-28T19:16:18.017Z,29.63
2022-11-28T19:19:06.405Z,28.10
2022-11-28T19:21:54.326Z,25.57
2022-11-28T19:24:41.284Z,25.73
2022-11-28T19:27:28.227Z,25.60
2022-11-28T19:30:16.596Z,26.17
2022-11-28T19:33:06.090Z,27.67
2022-11-28T19:35:53.494Z,26.87
2022-11-28T19:38:46.774Z,28.53
2022-11-28T19:41:34.099Z,25.20
2022-11-28T19:44:23.868Z,27.40
2022-11-28T19:47:10.961Z,25.83
2022-11-28T19:49:59.365Z,26.47
2022-11-28T19:52:47.104Z,28.57
2022-11-28T19:55:36.249Z,27.13
2022-11-28T19:58:23.739Z,27.30
2022-11-28T20:01:12.595Z,28.70
2022-11-28T20:03:59.668Z,28.13
2022-11-28T20:06:46.592Z,26.63
2022-11-28T20:09:33.622Z,25.30
2022-11-28T20:12:20.586Z,28.60
2022-11-28T20:15:10.590Z,27.03
2022-11-28T20:18:00.756Z,27.23
2022-11-28T20:20:48.491Z,29.63
2022-11-28T20:23:42.776Z,32.27
2022-11-28T20:26:31.018Z,31.17
2022-11-28T20:29:19.922Z,28.23
2022-11-28T20:32:07.039Z,33.53
2022-11-28T20:34:54.037Z,28.40
2022-11-28T20:37:41.099Z,28.60
2022-11-28T20:40:28.081Z,31.57
2022-11-28T20:43:15.005Z,30.97
2022-11-28T20:46:16.850Z,31.63
2022-11-28T20:49:07.000Z,31.13
2022-11-28T20:51:54.093Z,33.07
2022-11-28T20:54:40.999Z,34.47
2022-11-28T20:57:28.598Z,30.27
2022-11-28T21:00:20.271Z,34.20
2022-11-28T21:03:10.499Z,33.47
2022-11-28T21:06:01.011Z,32.73
2022-11-28T21:08:49.086Z,33.87
2022-11-28T21:11:56.359Z,39.67
2022-11-28T21:14:44.191Z,33.63
2022-11-28T21:17:32.712Z,37.73
2022-11-28T21:20:20.151Z,35.03
2022-11-28T21:23:09.301Z,30.77
2022-11-28T21:25:56.832Z,32.73
2022-11-28T21:28:45.470Z,37.37
2022-11-28T21:31:34.096Z,35.43
2022-11-28T21:34:22.312Z,31.67
2022-11-28T21:37:11.358Z,36.63
2022-11-28T21:39:59.510Z,35.47
2022-11-28T21:42:47.163Z,34.97
2022-11-28T21:45:35.289Z,36.87
2022-11-28T21:48:22.832Z,36.23
2022-11-28T21:51:15.905Z,36.80
2022-11-28T21:54:05.880Z,34.33
2022-11-28T21:56:53.288Z,36.70
2022-11-28T21:59:41.120Z,37.93
2022-11-28T22:02:31.264Z,35.13
2022-11-28T22:05:18.339Z,30.63
2022-11-28T22:08:05.301Z,38.60
2022-11-28T22:10:53.063Z,40.17
2022-11-28T22:13:42.242Z,33.40
2022-11-28T22:16:29.643Z,36.83
2022-11-28T22:19:16.803Z,37.57
2022-11-28T22:22:04.450Z,32.87
2022-11-28T22:24:56.422Z,37.43
2022-11-28T22:27:43.824Z,34.47
2022-11-28T22:30:30.819Z,37.53
2022-11-28T22:33:18.606Z,39.73
2022-11-28T22:36:11.735Z,36.23
2022-11-28T22:38:59.098Z,39.90
2022-11-28T22:41:47.409Z,39.03
2022-11-28T22:44:34.930Z,38.30
2022-11-28T22:47:23.382Z,37.57
2022-11-28T22:50:10.670Z,38.43
2022-11-28T22:52:58.213Z,40.43
2022-11-28T22:55:45.800Z,36.27
2022-11-28T22:58:42.678Z,39.80
2022-11-28T23:01:32.283Z,37.60
2022-11-28T23:04:19.337Z,41.40
2022-11-28T23:07:06.341Z,38.20
2022-11-28T23:09:53.312Z,39.07
2022-11-28T23:12:41.927Z,39.23
2022-11-28T23:15:28.888Z,36.13
2022-11-28T23:18:15.909Z,35.83
2022-11-28T23:21:03.078Z,36.87
2022-11-28T23:23:50.631Z,36.00
2022-11-28T23:26:37.641Z,38.67
2022-11-28T23:29:24.801Z,39.30
2022-11-28T23:32:11.871Z,37.13
2022-11-28T23:35:00.202Z,35.40
2022-11-28T23:37:47.221Z,38.00
2022-11-28T23:40:34.265Z,40.40
2022-11-28T23:43:21.352Z,37.93
2022-11-28T23:46:10.067Z,37.23
2022-11-28T23:48:57.149Z,39.40
2022-11-28T23:51:44.160Z,36.60
2022-11-28T23:54:31.563Z,38.10
2022-11-28T23:57:18.492Z,38.33
